sensor_id;sensor_type;location;lat;lon;timestamp;P1;durP1;ratioP1;P2;durP2;ratioP2
17806;SDS011;9027;48.938;9.182;2022-07-10T00:00:52;5.35;;;4.72;;
17806;SDS011;9027;48.938;9.182;2022-07-10T00:02:31;7.43;;;4.65;;
17806;SDS011;9027;48.938;9.182;2022-07-10T00:04:09;4.72;;;4.18;;
17806;SDS011;9027;48.938;9.182;2022-07-10T00:05:49;5.55;;;4.95;;
17806;SDS011;9027;48.938;9.182;2022-07-10T00:07:27;5.40;;;4.40;;
17806;SDS011;9027;48.938;9.182;2022-07-10T00:09:04;7.28;;;4.60;;
17806;SDS011;9027;48.938;9.182;2022-07-10T00:10:43;5.85;;;4.70;;
17806;SDS011;9027;48.938;9.182;2022-07-10T00:12:22;5.68;;;4.35;;
17806;SDS011;9027;48.938;9.182;2022-07-10T00:14:05;5.45;;;4.57;;
17806;SDS011;9027;48.938;9.182;2022-07-10T00:15:43;5.78;;;4.30;;
17806;SDS011;9027;48.938;9.182;2022-07-10T00:17:25;5.70;;;4.88;;
17806;SDS011;9027;48.938;9.182;2022-07-10T00:19:04;5.05;;;4.55;;
17806;SDS011;9027;48.938;9.182;2022-07-10T00:20:46;5.78;;;4.72;;
17806;SDS011;9027;48.938;9.182;2022-07-10T00:22:25;8.13;;;4.30;;
17806;SDS011;9027;48.938;9.182;2022-07-10T00:24:04;5.60;;;4.60;;
17806;SDS011;9027;48.938;9.182;2022-07-10T00:25:43;5.03;;;4.53;;
17806;SDS011;9027;48.938;9.182;2022-07-10T00:27:22;5.90;;;4.88;;
17806;SDS011;9027;48.938;9.182;2022-07-10T00:29:00;5.85;;;4.53;;
17806;SDS011;9027;48.938;9.182;2022-07-10T00:30:39;4.50;;;4.10;;
17806;SDS011;9027;48.938;9.182;2022-07-10T00:32:18;5.13;;;4.18;;
17806;SDS011;9027;48.938;9.182;2022-07-10T00:33:59;6.45;;;4.65;;
17806;SDS011;9027;48.938;9.182;2022-07-10T00:35:38;7.13;;;4.22;;
17806;SDS011;9027;48.938;9.182;2022-07-10T00:37:16;4.60;;;4.20;;
17806;SDS011;9027;48.938;9.182;2022-07-10T00:38:54;5.70;;;4.30;;
17806;SDS011;9027;48.938;9.182;2022-07-10T00:40:32;6.00;;;4.88;;
17806;SDS011;9027;48.938;9.182;2022-07-10T00:42:12;5.85;;;4.13;;
17806;SDS011;9027;48.938;9.182;2022-07-10T00:43:54;6.68;;;4.70;;
17806;SDS011;9027;48.938;9.182;2022-07-10T00:45:34;4.93;;;4.30;;
17806;SDS011;9027;48.938;9.182;2022-07-10T00:47:12;5.38;;;4.45;;
17806;SDS011;9027;48.938;9.182;2022-07-10T00:48:51;6.45;;;4.97;;
17806;SDS011;9027;48.938;9.182;2022-07-10T00:50:29;4.82;;;3.95;;
17806;SDS011;9027;48.938;9.182;2022-07-10T00:52:05;7.50;;;4.22;;
17806;SDS011;9027;48.938;9.182;2022-07-10T00:53:47;5.38;;;4.18;;
17806;SDS011;9027;48.938;9.182;2022-07-10T00:55:21;5.05;;;4.63;;
17806;SDS011;9027;48.938;9.182;2022-07-10T00:56:55;11.15;;;4.55;;
17806;SDS011;9027;48.938;9.182;2022-07-10T00:58:28;6.28;;;4.40;;
17806;SDS011;9027;48.938;9.182;2022-07-10T01:00:02;7.35;;;4.60;;
17806;SDS011;9027;48.938;9.182;2022-07-10T01:01:36;6.72;;;4.85;;
17806;SDS011;9027;48.938;9.182;2022-07-10T01:03:09;5.57;;;4.55;;
17806;SDS011;9027;48.938;9.182;2022-07-10T01:04:42;8.23;;;4.78;;
17806;SDS011;9027;48.938;9.182;2022-07-10T01:06:16;4.22;;;3.83;;
17806;SDS011;9027;48.938;9.182;2022-07-10T01:07:49;4.25;;;3.85;;
17806;SDS011;9027;48.938;9.182;2022-07-10T01:09:23;4.78;;;4.25;;
17806;SDS011;9027;48.938;9.182;2022-07-10T01:10:57;4.57;;;4.18;;
17806;SDS011;9027;48.938;9.182;2022-07-10T01:12:32;4.90;;;4.50;;
17806;SDS011;9027;48.938;9.182;2022-07-10T01:14:05;6.05;;;4.90;;
17806;SDS011;9027;48.938;9.182;2022-07-10T01:15:37;5.07;;;3.97;;
17806;SDS011;9027;48.938;9.182;2022-07-10T01:17:10;4.55;;;4.22;;
17806;SDS011;9027;48.938;9.182;2022-07-10T01:18:43;4.55;;;4.13;;
17806;SDS011;9027;48.938;9.182;2022-07-10T01:20:16;7.60;;;4.80;;
17806;SDS011;9027;48.938;9.182;2022-07-10T01:21:49;5.13;;;4.63;;
17806;SDS011;9027;48.938;9.182;2022-07-10T01:23:21;5.78;;;4.72;;
17806;SDS011;9027;48.938;9.182;2022-07-10T01:24:53;5.55;;;4.47;;
17806;SDS011;9027;48.938;9.182;2022-07-10T01:26:25;5.32;;;4.40;;
17806;SDS011;9027;48.938;9.182;2022-07-10T01:27:56;6.68;;;4.60;;
17806;SDS011;9027;48.938;9.182;2022-07-10T01:29:29;6.57;;;4.95;;
17806;SDS011;9027;48.938;9.182;2022-07-10T01:31:01;5.45;;;4.60;;
17806;SDS011;9027;48.938;9.182;2022-07-10T01:32:36;6.32;;;5.13;;
17806;SDS011;9027;48.938;9.182;2022-07-10T01:34:09;17.33;;;5.07;;
17806;SDS011;9027;48.938;9.182;2022-07-10T01:35:41;9.05;;;4.90;;
17806;SDS011;9027;48.938;9.182;2022-07-10T01:37:14;6.20;;;5.03;;
17806;SDS011;9027;48.938;9.182;2022-07-10T01:38:46;7.28;;;5.40;;
17806;SDS011;9027;48.938;9.182;2022-07-10T01:40:19;6.40;;;4.97;;
17806;SDS011;9027;48.938;9.182;2022-07-10T01:41:50;8.48;;;5.07;;
17806;SDS011;9027;48.938;9.182;2022-07-10T01:43:22;8.38;;;5.45;;
17806;SDS011;9027;48.938;9.182;2022-07-10T01:44:53;9.13;;;4.80;;
17806;SDS011;9027;48.938;9.182;2022-07-10T01:46:25;8.18;;;5.32;;
17806;SDS011;9027;48.938;9.182;2022-07-10T01:47:57;7.55;;;5.40;;
17806;SDS011;9027;48.938;9.182;2022-07-10T01:49:28;7.65;;;5.10;;
17806;SDS011;9027;48.938;9.182;2022-07-10T01:51:01;7.22;;;5.85;;
17806;SDS011;9027;48.938;9.182;2022-07-10T01:52:35;7.32;;;5.60;;
17806;SDS011;9027;48.938;9.182;2022-07-10T01:54:07;7.53;;;5.88;;
17806;SDS011;9027;48.938;9.182;2022-07-10T01:55:39;11.45;;;6.05;;
17806;SDS011;9027;48.938;9.182;2022-07-10T01:57:10;8.90;;;5.90;;
17806;SDS011;9027;48.938;9.182;2022-07-10T01:58:42;6.63;;;5.30;;
17806;SDS011;9027;48.938;9.182;2022-07-10T02:00:14;7.90;;;5.55;;
17806;SDS011;9027;48.938;9.182;2022-07-10T02:01:46;9.38;;;5.13;;
17806;SDS011;9027;48.938;9.182;2022-07-10T02:03:18;10.88;;;5.53;;
17806;SDS011;9027;48.938;9.182;2022-07-10T02:05:07;8.77;;;5.50;;
17806;SDS011;9027;48.938;9.182;2022-07-10T02:06:39;9.85;;;5.68;;
17806;SDS011;9027;48.938;9.182;2022-07-10T02:08:12;6.55;;;5.63;;
17806;SDS011;9027;48.938;9.182;2022-07-10T02:09:44;7.57;;;5.68;;
17806;SDS011;9027;48.938;9.182;2022-07-10T02:11:17;8.13;;;6.57;;
17806;SDS011;9027;48.938;9.182;2022-07-10T02:12:47;6.85;;;5.88;;
17806;SDS011;9027;48.938;9.182;2022-07-10T02:14:19;7.70;;;5.68;;
17806;SDS011;9027;48.938;9.182;2022-07-10T02:15:51;7.93;;;5.57;;
17806;SDS011;9027;48.938;9.182;2022-07-10T02:17:24;7.75;;;5.65;;
17806;SDS011;9027;48.938;9.182;2022-07-10T02:18:55;7.85;;;5.80;;
17806;SDS011;9027;48.938;9.182;2022-07-10T02:20:27;6.45;;;5.32;;
17806;SDS011;9027;48.938;9.182;2022-07-10T02:21:59;5.90;;;5.30;;
17806;SDS011;9027;48.938;9.182;2022-07-10T02:23:33;8.02;;;5.30;;
17806;SDS011;9027;48.938;9.182;2022-07-10T02:25:04;7.95;;;5.55;;
17806;SDS011;9027;48.938;9.182;2022-07-10T02:26:37;6.13;;;5.53;;
17806;SDS011;9027;48.938;9.182;2022-07-10T02:28:09;6.65;;;5.72;;
17806;SDS011;9027;48.938;9.182;2022-07-10T02:29:40;8.27;;;5.43;;
17806;SDS011;9027;48.938;9.182;2022-07-10T02:31:12;8.25;;;5.93;;
17806;SDS011;9027;48.938;9.182;2022-07-10T02:32:42;7.47;;;5.57;;
17806;SDS011;9027;48.938;9.182;2022-07-10T02:34:15;6.35;;;5.70;;
17806;SDS011;9027;48.938;9.182;2022-07-10T02:35:47;6.85;;;5.90;;
17806;SDS011;9027;48.938;9.182;2022-07-10T02:37:19;7.93;;;6.20;;
17806;SDS011;9027;48.938;9.182;2022-07-10T02:38:52;7.20;;;5.65;;
17806;SDS011;9027;48.938;9.182;2022-07-10T02:40:24;7.00;;;6.32;;
17806;SDS011;9027;48.938;9.182;2022-07-10T02:41:55;6.78;;;6.07;;
17806;SDS011;9027;48.938;9.182;2022-07-10T02:43:27;7.25;;;6.50;;
17806;SDS011;9027;48.938;9.182;2022-07-10T02:44:59;7.18;;;6.45;;
17806;SDS011;9027;48.938;9.182;2022-07-10T02:46:29;6.80;;;6.10;;
17806;SDS011;9027;48.938;9.182;2022-07-10T02:48:01;6.88;;;6.20;;
17806;SDS011;9027;48.938;9.182;2022-07-10T02:49:34;10.70;;;6.32;;
17806;SDS011;9027;48.938;9.182;2022-07-10T02:51:05;8.05;;;6.32;;
17806;SDS011;9027;48.938;9.182;2022-07-10T02:52:37;7.25;;;6.50;;
17806;SDS011;9027;48.938;9.182;2022-07-10T02:54:11;10.50;;;6.55;;
17806;SDS011;9027;48.938;9.182;2022-07-10T02:55:42;8.45;;;6.15;;
17806;SDS011;9027;48.938;9.182;2022-07-10T02:57:14;12.20;;;6.57;;
17806;SDS011;9027;48.938;9.182;2022-07-10T02:58:46;7.72;;;6.35;;
17806;SDS011;9027;48.938;9.182;2022-07-10T03:00:17;9.18;;;7.40;;
17806;SDS011;9027;48.938;9.182;2022-07-10T03:01:48;7.50;;;6.80;;
17806;SDS011;9027;48.938;9.182;2022-07-10T03:03:20;7.45;;;6.72;;
17806;SDS011;9027;48.938;9.182;2022-07-10T03:04:52;8.60;;;6.07;;
17806;SDS011;9027;48.938;9.182;2022-07-10T03:06:24;7.03;;;5.68;;
17806;SDS011;9027;48.938;9.182;2022-07-10T03:07:56;6.65;;;5.80;;
17806;SDS011;9027;48.938;9.182;2022-07-10T03:09:29;6.28;;;5.50;;
17806;SDS011;9027;48.938;9.182;2022-07-10T03:11:01;7.35;;;6.20;;
17806;SDS011;9027;48.938;9.182;2022-07-10T03:12:33;6.57;;;5.97;;
17806;SDS011;9027;48.938;9.182;2022-07-10T03:14:05;6.30;;;5.70;;
17806;SDS011;9027;48.938;9.182;2022-07-10T03:15:37;6.40;;;5.35;;
17806;SDS011;9027;48.938;9.182;2022-07-10T03:17:09;8.10;;;5.30;;
17806;SDS011;9027;48.938;9.182;2022-07-10T03:18:40;6.18;;;5.55;;
17806;SDS011;9027;48.938;9.182;2022-07-10T03:20:12;6.97;;;5.90;;
17806;SDS011;9027;48.938;9.182;2022-07-10T03:21:44;7.32;;;5.43;;
17806;SDS011;9027;48.938;9.182;2022-07-10T03:23:16;11.55;;;5.85;;
17806;SDS011;9027;48.938;9.182;2022-07-10T03:24:49;6.38;;;5.43;;
17806;SDS011;9027;48.938;9.182;2022-07-10T03:26:21;6.28;;;5.68;;
17806;SDS011;9027;48.938;9.182;2022-07-10T03:27:53;6.85;;;5.28;;
17806;SDS011;9027;48.938;9.182;2022-07-10T03:29:25;8.55;;;5.50;;
17806;SDS011;9027;48.938;9.182;2022-07-10T03:30:57;7.18;;;5.32;;
17806;SDS011;9027;48.938;9.182;2022-07-10T03:32:29;6.45;;;5.85;;
17806;SDS011;9027;48.938;9.182;2022-07-10T03:34:00;9.70;;;5.72;;
17806;SDS011;9027;48.938;9.182;2022-07-10T03:35:33;5.85;;;5.05;;
17806;SDS011;9027;48.938;9.182;2022-07-10T03:37:05;7.20;;;5.68;;
17806;SDS011;9027;48.938;9.182;2022-07-10T03:38:37;7.82;;;5.00;;
17806;SDS011;9027;48.938;9.182;2022-07-10T03:40:10;7.90;;;5.88;;
17806;SDS011;9027;48.938;9.182;2022-07-10T03:41:42;7.88;;;5.35;;
17806;SDS011;9027;48.938;9.182;2022-07-10T03:43:14;4.75;;;4.35;;
17806;SDS011;9027;48.938;9.182;2022-07-10T03:44:46;7.13;;;5.20;;
17806;SDS011;9027;48.938;9.182;2022-07-10T03:46:18;8.80;;;6.00;;
17806;SDS011;9027;48.938;9.182;2022-07-10T03:47:50;5.68;;;5.22;;
17806;SDS011;9027;48.938;9.182;2022-07-10T03:49:22;7.47;;;5.30;;
17806;SDS011;9027;48.938;9.182;2022-07-10T03:50:53;5.28;;;4.78;;
17806;SDS011;9027;48.938;9.182;2022-07-10T03:52:25;7.70;;;4.82;;
17806;SDS011;9027;48.938;9.182;2022-07-10T03:53:57;5.07;;;4.57;;
17806;SDS011;9027;48.938;9.182;2022-07-10T03:55:30;5.80;;;5.18;;
17806;SDS011;9027;48.938;9.182;2022-07-10T03:57:02;8.15;;;4.97;;
17806;SDS011;9027;48.938;9.182;2022-07-10T03:58:52;8.02;;;4.93;;
17806;SDS011;9027;48.938;9.182;2022-07-10T04:00:23;7.65;;;5.70;;
17806;SDS011;9027;48.938;9.182;2022-07-10T04:01:57;9.73;;;5.65;;
17806;SDS011;9027;48.938;9.182;2022-07-10T04:03:27;8.95;;;5.22;;
17806;SDS011;9027;48.938;9.182;2022-07-10T04:04:59;6.63;;;5.13;;
17806;SDS011;9027;48.938;9.182;2022-07-10T04:06:30;8.75;;;4.80;;
17806;SDS011;9027;48.938;9.182;2022-07-10T04:08:02;4.82;;;4.32;;
17806;SDS011;9027;48.938;9.182;2022-07-10T04:09:35;6.78;;;4.93;;
17806;SDS011;9027;48.938;9.182;2022-07-10T04:11:08;5.97;;;4.90;;
17806;SDS011;9027;48.938;9.182;2022-07-10T04:12:40;5.18;;;4.55;;
17806;SDS011;9027;48.938;9.182;2022-07-10T04:14:12;6.05;;;5.03;;
17806;SDS011;9027;48.938;9.182;2022-07-10T04:15:44;6.55;;;4.70;;
17806;SDS011;9027;48.938;9.182;2022-07-10T04:17:16;7.25;;;5.18;;
17806;SDS011;9027;48.938;9.182;2022-07-10T04:18:48;6.35;;;5.47;;
17806;SDS011;9027;48.938;9.182;2022-07-10T04:20:20;6.32;;;4.75;;
17806;SDS011;9027;48.938;9.182;2022-07-10T04:21:53;7.80;;;5.00;;
17806;SDS011;9027;48.938;9.182;2022-07-10T04:23:25;6.07;;;5.03;;
17806;SDS011;9027;48.938;9.182;2022-07-10T04:24:56;8.65;;;4.90;;
17806;SDS011;9027;48.938;9.182;2022-07-10T04:26:29;5.30;;;4.80;;
17806;SDS011;9027;48.938;9.182;2022-07-10T04:28:01;5.93;;;4.85;;
17806;SDS011;9027;48.938;9.182;2022-07-10T04:29:33;5.70;;;4.47;;
17806;SDS011;9027;48.938;9.182;2022-07-10T04:31:04;5.90;;;5.00;;
17806;SDS011;9027;48.938;9.182;2022-07-10T04:32:36;9.10;;;4.82;;
17806;SDS011;9027;48.938;9.182;2022-07-10T04:34:08;5.68;;;4.40;;
17806;SDS011;9027;48.938;9.182;2022-07-10T04:35:40;6.30;;;4.70;;
17806;SDS011;9027;48.938;9.182;2022-07-10T04:37:12;7.20;;;4.57;;
17806;SDS011;9027;48.938;9.182;2022-07-10T04:38:44;5.15;;;4.25;;
17806;SDS011;9027;48.938;9.182;2022-07-10T04:40:15;7.45;;;4.05;;
17806;SDS011;9027;48.938;9.182;2022-07-10T04:41:48;4.53;;;3.88;;
17806;SDS011;9027;48.938;9.182;2022-07-10T04:43:20;6.22;;;4.25;;
17806;SDS011;9027;48.938;9.182;2022-07-10T04:44:51;5.72;;;3.95;;
17806;SDS011;9027;48.938;9.182;2022-07-10T04:46:23;5.32;;;4.03;;
17806;SDS011;9027;48.938;9.182;2022-07-10T04:47:55;5.40;;;3.58;;
17806;SDS011;9027;48.938;9.182;2022-07-10T04:49:27;5.28;;;3.78;;
17806;SDS011;9027;48.938;9.182;2022-07-10T04:51:00;8.80;;;3.88;;
17806;SDS011;9027;48.938;9.182;2022-07-10T04:52:31;4.30;;;3.67;;
17806;SDS011;9027;48.938;9.182;2022-07-10T04:54:03;5.68;;;4.00;;
17806;SDS011;9027;48.938;9.182;2022-07-10T04:55:35;4.47;;;3.78;;
17806;SDS011;9027;48.938;9.182;2022-07-10T04:57:07;4.35;;;3.95;;
17806;SDS011;9027;48.938;9.182;2022-07-10T04:58:39;4.82;;;3.50;;
17806;SDS011;9027;48.938;9.182;2022-07-10T05:00:12;5.72;;;3.95;;
17806;SDS011;9027;48.938;9.182;2022-07-10T05:01:44;6.55;;;3.38;;
17806;SDS011;9027;48.938;9.182;2022-07-10T05:03:16;6.20;;;3.50;;
17806;SDS011;9027;48.938;9.182;2022-07-10T05:04:48;5.90;;;3.30;;
17806;SDS011;9027;48.938;9.182;2022-07-10T05:06:20;5.30;;;3.40;;
17806;SDS011;9027;48.938;9.182;2022-07-10T05:07:51;6.05;;;3.08;;
17806;SDS011;9027;48.938;9.182;2022-07-10T05:09:24;4.20;;;3.13;;
17806;SDS011;9027;48.938;9.182;2022-07-10T05:10:55;3.88;;;3.13;;
17806;SDS011;9027;48.938;9.182;2022-07-10T05:12:29;5.38;;;3.40;;
17806;SDS011;9027;48.938;9.182;2022-07-10T05:14:01;3.28;;;2.85;;
17806;SDS011;9027;48.938;9.182;2022-07-10T05:15:32;5.05;;;2.55;;
17806;SDS011;9027;48.938;9.182;2022-07-10T05:17:04;3.42;;;2.70;;
17806;SDS011;9027;48.938;9.182;2022-07-10T05:18:36;5.65;;;2.95;;
17806;SDS011;9027;48.938;9.182;2022-07-10T05:20:09;3.38;;;2.78;;
17806;SDS011;9027;48.938;9.182;2022-07-10T05:21:41;4.40;;;3.17;;
17806;SDS011;9027;48.938;9.182;2022-07-10T05:23:13;4.45;;;2.85;;
17806;SDS011;9027;48.938;9.182;2022-07-10T05:24:45;4.88;;;3.00;;
17806;SDS011;9027;48.938;9.182;2022-07-10T05:26:17;3.25;;;2.78;;
17806;SDS011;9027;48.938;9.182;2022-07-10T05:27:51;6.13;;;3.00;;
17806;SDS011;9027;48.938;9.182;2022-07-10T05:29:23;3.75;;;2.90;;
17806;SDS011;9027;48.938;9.182;2022-07-10T05:30:55;3.10;;;2.80;;
17806;SDS011;9027;48.938;9.182;2022-07-10T05:32:26;4.40;;;2.75;;
17806;SDS011;9027;48.938;9.182;2022-07-10T05:33:58;3.00;;;2.70;;
17806;SDS011;9027;48.938;9.182;2022-07-10T05:35:30;5.10;;;3.10;;
17806;SDS011;9027;48.938;9.182;2022-07-10T05:37:02;6.03;;;3.20;;
17806;SDS011;9027;48.938;9.182;2022-07-10T05:38:37;4.45;;;2.85;;
17806;SDS011;9027;48.938;9.182;2022-07-10T05:40:09;3.53;;;2.60;;
17806;SDS011;9027;48.938;9.182;2022-07-10T05:41:42;3.50;;;2.88;;
17806;SDS011;9027;48.938;9.182;2022-07-10T05:43:15;5.28;;;2.95;;
17806;SDS011;9027;48.938;9.182;2022-07-10T05:44:47;4.18;;;3.00;;
17806;SDS011;9027;48.938;9.182;2022-07-10T05:46:19;3.55;;;3.05;;
17806;SDS011;9027;48.938;9.182;2022-07-10T05:47:51;4.75;;;2.70;;
17806;SDS011;9027;48.938;9.182;2022-07-10T05:49:23;5.22;;;3.05;;
17806;SDS011;9027;48.938;9.182;2022-07-10T05:50:55;5.25;;;3.35;;
17806;SDS011;9027;48.938;9.182;2022-07-10T05:52:27;5.18;;;3.17;;
17806;SDS011;9027;48.938;9.182;2022-07-10T05:53:59;5.05;;;2.80;;
17806;SDS011;9027;48.938;9.182;2022-07-10T05:55:31;4.50;;;2.53;;
17806;SDS011;9027;48.938;9.182;2022-07-10T05:57:03;3.47;;;2.72;;
17806;SDS011;9027;48.938;9.182;2022-07-10T05:58:37;4.00;;;2.67;;
17806;SDS011;9027;48.938;9.182;2022-07-10T06:00:09;2.75;;;2.25;;
17806;SDS011;9027;48.938;9.182;2022-07-10T06:01:44;6.05;;;3.03;;
17806;SDS011;9027;48.938;9.182;2022-07-10T06:03:16;4.93;;;2.50;;
17806;SDS011;9027;48.938;9.182;2022-07-10T06:04:48;3.72;;;2.40;;
17806;SDS011;9027;48.938;9.182;2022-07-10T06:06:20;3.67;;;2.33;;
17806;SDS011;9027;48.938;9.182;2022-07-10T06:07:52;3.92;;;2.30;;
17806;SDS011;9027;48.938;9.182;2022-07-10T06:09:24;2.53;;;2.10;;
17806;SDS011;9027;48.938;9.182;2022-07-10T06:10:55;4.18;;;2.13;;
17806;SDS011;9027;48.938;9.182;2022-07-10T06:12:27;4.55;;;2.15;;
17806;SDS011;9027;48.938;9.182;2022-07-10T06:14:00;3.60;;;2.20;;
17806;SDS011;9027;48.938;9.182;2022-07-10T06:15:32;4.55;;;2.42;;
17806;SDS011;9027;48.938;9.182;2022-07-10T06:17:04;4.50;;;2.25;;
17806;SDS011;9027;48.938;9.182;2022-07-10T06:18:35;2.78;;;2.33;;
17806;SDS011;9027;48.938;9.182;2022-07-10T06:20:07;3.03;;;1.77;;
17806;SDS011;9027;48.938;9.182;2022-07-10T06:21:40;5.63;;;2.30;;
17806;SDS011;9027;48.938;9.182;2022-07-10T06:23:12;3.67;;;1.88;;
17806;SDS011;9027;48.938;9.182;2022-07-10T06:24:43;5.13;;;1.80;;
17806;SDS011;9027;48.938;9.182;2022-07-10T06:26:15;4.20;;;1.45;;
17806;SDS011;9027;48.938;9.182;2022-07-10T06:27:47;3.97;;;2.00;;
17806;SDS011;9027;48.938;9.182;2022-07-10T06:29:20;5.30;;;1.90;;
17806;SDS011;9027;48.938;9.182;2022-07-10T06:30:52;7.03;;;2.00;;
17806;SDS011;9027;48.938;9.182;2022-07-10T06:32:24;4.90;;;2.20;;
17806;SDS011;9027;48.938;9.182;2022-07-10T06:33:56;5.35;;;1.95;;
17806;SDS011;9027;48.938;9.182;2022-07-10T06:35:28;5.68;;;1.70;;
17806;SDS011;9027;48.938;9.182;2022-07-10T06:37:00;4.30;;;1.65;;
17806;SDS011;9027;48.938;9.182;2022-07-10T06:38:32;4.55;;;1.90;;
17806;SDS011;9027;48.938;9.182;2022-07-10T06:40:05;3.28;;;1.90;;
17806;SDS011;9027;48.938;9.182;2022-07-10T06:41:38;6.07;;;1.80;;
17806;SDS011;9027;48.938;9.182;2022-07-10T06:43:10;2.25;;;1.52;;
17806;SDS011;9027;48.938;9.182;2022-07-10T06:44:43;5.15;;;1.83;;
17806;SDS011;9027;48.938;9.182;2022-07-10T06:46:16;3.50;;;1.80;;
17806;SDS011;9027;48.938;9.182;2022-07-10T06:47:47;4.35;;;1.83;;
17806;SDS011;9027;48.938;9.182;2022-07-10T06:49:29;4.63;;;1.92;;
17806;SDS011;9027;48.938;9.182;2022-07-10T06:51:01;4.88;;;1.90;;
17806;SDS011;9027;48.938;9.182;2022-07-10T06:52:33;3.67;;;1.75;;
17806;SDS011;9027;48.938;9.182;2022-07-10T06:54:06;1.73;;;1.60;;
17806;SDS011;9027;48.938;9.182;2022-07-10T06:55:37;3.55;;;1.60;;
17806;SDS011;9027;48.938;9.182;2022-07-10T06:57:09;2.78;;;1.67;;
17806;SDS011;9027;48.938;9.182;2022-07-10T06:58:42;5.47;;;1.90;;
17806;SDS011;9027;48.938;9.182;2022-07-10T07:00:15;4.53;;;1.85;;
17806;SDS011;9027;48.938;9.182;2022-07-10T07:01:47;3.42;;;1.80;;
17806;SDS011;9027;48.938;9.182;2022-07-10T07:03:18;2.22;;;1.52;;
17806;SDS011;9027;48.938;9.182;2022-07-10T07:04:50;5.28;;;1.70;;
17806;SDS011;9027;48.938;9.182;2022-07-10T07:06:22;4.47;;;1.80;;
17806;SDS011;9027;48.938;9.182;2022-07-10T07:07:54;6.72;;;1.48;;
17806;SDS011;9027;48.938;9.182;2022-07-10T07:09:26;3.08;;;1.50;;
17806;SDS011;9027;48.938;9.182;2022-07-10T07:10:57;4.68;;;1.60;;
17806;SDS011;9027;48.938;9.182;2022-07-10T07:12:29;7.07;;;1.98;;
17806;SDS011;9027;48.938;9.182;2022-07-10T07:14:01;4.28;;;1.55;;
17806;SDS011;9027;48.938;9.182;2022-07-10T07:15:34;2.40;;;1.27;;
17806;SDS011;9027;48.938;9.182;2022-07-10T07:17:09;4.75;;;1.50;;
17806;SDS011;9027;48.938;9.182;2022-07-10T07:18:44;6.38;;;1.10;;
17806;SDS011;9027;48.938;9.182;2022-07-10T07:20:23;6.47;;;1.30;;
17806;SDS011;9027;48.938;9.182;2022-07-10T07:22:13;3.38;;;1.30;;
17806;SDS011;9027;48.938;9.182;2022-07-10T07:24:03;3.67;;;1.38;;
17806;SDS011;9027;48.938;9.182;2022-07-10T07:25:35;2.25;;;1.23;;
17806;SDS011;9027;48.938;9.182;2022-07-10T07:27:08;3.92;;;1.30;;
17806;SDS011;9027;48.938;9.182;2022-07-10T07:28:40;4.05;;;1.30;;
17806;SDS011;9027;48.938;9.182;2022-07-10T07:30:13;2.25;;;1.50;;
17806;SDS011;9027;48.938;9.182;2022-07-10T07:31:46;4.80;;;1.42;;
17806;SDS011;9027;48.938;9.182;2022-07-10T07:33:18;3.90;;;1.33;;
17806;SDS011;9027;48.938;9.182;2022-07-10T07:34:50;3.85;;;1.50;;
17806;SDS011;9027;48.938;9.182;2022-07-10T07:36:21;3.55;;;1.23;;
17806;SDS011;9027;48.938;9.182;2022-07-10T07:37:53;2.85;;;1.50;;
17806;SDS011;9027;48.938;9.182;2022-07-10T07:39:24;5.65;;;1.67;;
17806;SDS011;9027;48.938;9.182;2022-07-10T07:40:56;2.20;;;0.90;;
17806;SDS011;9027;48.938;9.182;2022-07-10T07:42:28;5.68;;;1.20;;
17806;SDS011;9027;48.938;9.182;2022-07-10T07:43:59;5.30;;;1.38;;
17806;SDS011;9027;48.938;9.182;2022-07-10T07:45:31;2.75;;;1.13;;
17806;SDS011;9027;48.938;9.182;2022-07-10T07:47:05;3.28;;;1.10;;
17806;SDS011;9027;48.938;9.182;2022-07-10T07:48:36;2.53;;;1.15;;
17806;SDS011;9027;48.938;9.182;2022-07-10T07:50:08;4.68;;;1.27;;
17806;SDS011;9027;48.938;9.182;2022-07-10T07:51:40;3.30;;;1.52;;
17806;SDS011;9027;48.938;9.182;2022-07-10T07:53:12;5.40;;;1.50;;
17806;SDS011;9027;48.938;9.182;2022-07-10T07:54:44;4.38;;;1.40;;
17806;SDS011;9027;48.938;9.182;2022-07-10T07:56:16;3.42;;;1.50;;
17806;SDS011;9027;48.938;9.182;2022-07-10T07:57:50;3.72;;;1.35;;
17806;SDS011;9027;48.938;9.182;2022-07-10T07:59:24;3.38;;;1.33;;
17806;SDS011;9027;48.938;9.182;2022-07-10T08:00:56;3.13;;;1.40;;
17806;SDS011;9027;48.938;9.182;2022-07-10T08:02:30;3.10;;;1.20;;
17806;SDS011;9027;48.938;9.182;2022-07-10T08:04:02;3.30;;;1.25;;
17806;SDS011;9027;48.938;9.182;2022-07-10T08:05:34;3.00;;;1.38;;
17806;SDS011;9027;48.938;9.182;2022-07-10T08:07:06;4.70;;;1.30;;
17806;SDS011;9027;48.938;9.182;2022-07-10T08:08:38;1.90;;;1.05;;
17806;SDS011;9027;48.938;9.182;2022-07-10T08:10:11;2.88;;;1.20;;
17806;SDS011;9027;48.938;9.182;2022-07-10T08:11:44;2.13;;;0.82;;
17806;SDS011;9027;48.938;9.182;2022-07-10T08:13:16;3.08;;;1.30;;
17806;SDS011;9027;48.938;9.182;2022-07-10T08:14:48;3.05;;;1.17;;
17806;SDS011;9027;48.938;9.182;2022-07-10T08:16:19;2.60;;;1.20;;
17806;SDS011;9027;48.938;9.182;2022-07-10T08:17:54;5.15;;;1.20;;
17806;SDS011;9027;48.938;9.182;2022-07-10T08:19:26;4.22;;;1.08;;
17806;SDS011;9027;48.938;9.182;2022-07-10T08:20:58;1.52;;;0.82;;
17806;SDS011;9027;48.938;9.182;2022-07-10T08:22:31;5.15;;;1.13;;
17806;SDS011;9027;48.938;9.182;2022-07-10T08:24:03;2.42;;;0.90;;
17806;SDS011;9027;48.938;9.182;2022-07-10T08:25:36;2.65;;;1.20;;
17806;SDS011;9027;48.938;9.182;2022-07-10T08:27:08;2.30;;;1.10;;
17806;SDS011;9027;48.938;9.182;2022-07-10T08:28:40;4.07;;;1.08;;
17806;SDS011;9027;48.938;9.182;2022-07-10T08:30:12;2.28;;;0.82;;
17806;SDS011;9027;48.938;9.182;2022-07-10T08:31:44;2.03;;;0.75;;
17806;SDS011;9027;48.938;9.182;2022-07-10T08:33:17;3.15;;;1.40;;
17806;SDS011;9027;48.938;9.182;2022-07-10T08:34:49;2.83;;;0.95;;
17806;SDS011;9027;48.938;9.182;2022-07-10T08:36:21;2.30;;;1.08;;
17806;SDS011;9027;48.938;9.182;2022-07-10T08:37:53;2.05;;;1.08;;
17806;SDS011;9027;48.938;9.182;2022-07-10T08:39:25;3.10;;;1.10;;
17806;SDS011;9027;48.938;9.182;2022-07-10T08:40:57;2.90;;;0.80;;
17806;SDS011;9027;48.938;9.182;2022-07-10T08:42:32;2.50;;;1.08;;
17806;SDS011;9027;48.938;9.182;2022-07-10T08:44:05;3.95;;;1.10;;
17806;SDS011;9027;48.938;9.182;2022-07-10T08:45:37;2.42;;;1.00;;
17806;SDS011;9027;48.938;9.182;2022-07-10T08:47:12;2.95;;;0.80;;
17806;SDS011;9027;48.938;9.182;2022-07-10T08:48:46;2.60;;;1.02;;
17806;SDS011;9027;48.938;9.182;2022-07-10T08:50:21;2.75;;;0.88;;
17806;SDS011;9027;48.938;9.182;2022-07-10T08:51:57;6.40;;;1.05;;
17806;SDS011;9027;48.938;9.182;2022-07-10T08:53:31;2.45;;;0.93;;
17806;SDS011;9027;48.938;9.182;2022-07-10T08:55:03;2.00;;;0.85;;
17806;SDS011;9027;48.938;9.182;2022-07-10T08:56:36;2.60;;;0.90;;
17806;SDS011;9027;48.938;9.182;2022-07-10T08:58:08;4.13;;;1.20;;
17806;SDS011;9027;48.938;9.182;2022-07-10T08:59:41;3.75;;;1.15;;
17806;SDS011;9027;48.938;9.182;2022-07-10T09:01:13;4.72;;;0.98;;
17806;SDS011;9027;48.938;9.182;2022-07-10T09:02:48;3.85;;;1.02;;
17806;SDS011;9027;48.938;9.182;2022-07-10T09:04:22;2.50;;;1.00;;
17806;SDS011;9027;48.938;9.182;2022-07-10T09:05:55;2.45;;;0.90;;
17806;SDS011;9027;48.938;9.182;2022-07-10T09:07:29;3.95;;;1.20;;
17806;SDS011;9027;48.938;9.182;2022-07-10T09:09:06;2.50;;;1.00;;
17806;SDS011;9027;48.938;9.182;2022-07-10T09:10:40;4.72;;;1.35;;
17806;SDS011;9027;48.938;9.182;2022-07-10T09:12:12;2.03;;;0.88;;
17806;SDS011;9027;48.938;9.182;2022-07-10T09:13:50;2.67;;;0.95;;
17806;SDS011;9027;48.938;9.182;2022-07-10T09:15:24;2.28;;;1.02;;
17806;SDS011;9027;48.938;9.182;2022-07-10T09:16:57;3.85;;;0.90;;
17806;SDS011;9027;48.938;9.182;2022-07-10T09:18:29;2.63;;;1.00;;
17806;SDS011;9027;48.938;9.182;2022-07-10T09:20:02;2.60;;;0.82;;
17806;SDS011;9027;48.938;9.182;2022-07-10T09:21:35;20.83;;;17.70;;
17806;SDS011;9027;48.938;9.182;2022-07-10T09:23:14;36.92;;;27.27;;
17806;SDS011;9027;48.938;9.182;2022-07-10T09:24:48;3.25;;;1.70;;
17806;SDS011;9027;48.938;9.182;2022-07-10T09:26:21;11.63;;;7.20;;
17806;SDS011;9027;48.938;9.182;2022-07-10T09:27:53;3.97;;;1.10;;
17806;SDS011;9027;48.938;9.182;2022-07-10T09:29:25;2.13;;;0.93;;